sensor_id;sensor_type;location;lat;lon;timestamp;pressure;altitude;pressure_sealevel;temperature;humidity
43450;BME280;29041;42.266;23.110;2023-12-04T00:00:39;96254.31;;;9.19;46.23
43450;BME280;29041;42.266;23.110;2023-12-04T00:03:26;96240.13;;;8.91;45.08
43450;BME280;29041;42.266;23.110;2023-12-04T00:06:14;96249.50;;;9.30;45.21
43450;BME280;29041;42.266;23.110;2023-12-04T00:09:02;96250.31;;;9.67;44.08
43450;BME280;29041;42.266;23.110;2023-12-04T00:11:49;96261.06;;;8.75;46.99
43450;BME280;29041;42.266;23.110;2023-12-04T00:14:36;96264.72;;;8.51;46.54
43450;BME280;29041;42.266;23.110;2023-12-04T00:17:23;96270.66;;;7.25;48.95
43450;BME280;29041;42.266;23.110;2023-12-04T00:20:10;96272.38;;;8.72;45.83
43450;BME280;29041;42.266;23.110;2023-12-04T00:22:58;96267.13;;;8.95;45.69
43450;BME280;29041;42.266;23.110;2023-12-04T00:25:46;96277.13;;;8.61;46.59
43450;BME280;29041;42.266;23.110;2023-12-04T00:28:36;96286.13;;;8.65;45.98
43450;BME280;29041;42.266;23.110;2023-12-04T00:31:23;96298.16;;;8.82;45.52
43450;BME280;29041;42.266;23.110;2023-12-04T00:34:10;96292.75;;;8.21;46.80
43450;BME280;29041;42.266;23.110;2023-12-04T00:36:57;96301.34;;;8.37;46.12
43450;BME280;29041;42.266;23.110;2023-12-04T00:39:45;96299.34;;;8.89;44.35
43450;BME280;29041;42.266;23.110;2023-12-04T00:42:33;96308.34;;;8.66;45.86
43450;BME280;29041;42.266;23.110;2023-12-04T00:45:20;96281.19;;;8.25;45.98
43450;BME280;29041;42.266;23.110;2023-12-04T00:48:07;96310.25;;;8.32;45.89
43450;BME280;29041;42.266;23.110;2023-12-04T00:50:55;96319.97;;;8.09;46.44
43450;BME280;29041;42.266;23.110;2023-12-04T00:53:42;96305.28;;;8.72;44.96
43450;BME280;29041;42.266;23.110;2023-12-04T00:56:29;96309.66;;;8.82;44.68
43450;BME280;29041;42.266;23.110;2023-12-04T00:59:18;96309.69;;;9.47;44.06
43450;BME280;29041;42.266;23.110;2023-12-04T01:02:06;96316.09;;;9.74;43.18
43450;BME280;29041;42.266;23.110;2023-12-04T01:04:53;96310.72;;;9.37;44.00
43450;BME280;29041;42.266;23.110;2023-12-04T01:07:40;96314.41;;;10.00;42.48
43450;BME280;29041;42.266;23.110;2023-12-04T01:10:27;96315.03;;;8.82;44.34
43450;BME280;29041;42.266;23.110;2023-12-04T01:13:14;96308.03;;;9.37;43.16
43450;BME280;29041;42.266;23.110;2023-12-04T01:16:03;96318.50;;;9.61;42.66
43450;BME280;29041;42.266;23.110;2023-12-04T01:18:51;96330.66;;;8.75;45.39
43450;BME280;29041;42.266;23.110;2023-12-04T01:21:38;96324.50;;;8.28;45.84
43450;BME280;29041;42.266;23.110;2023-12-04T01:24:25;96317.47;;;9.34;43.27
43450;BME280;29041;42.266;23.110;2023-12-04T01:27:13;96320.44;;;8.77;44.02
43450;BME280;29041;42.266;23.110;2023-12-04T01:30:00;96319.94;;;8.75;45.13
43450;BME280;29041;42.266;23.110;2023-12-04T01:32:49;96314.03;;;8.92;44.87
43450;BME280;29041;42.266;23.110;2023-12-04T01:35:36;96316.78;;;9.29;44.15
43450;BME280;29041;42.266;23.110;2023-12-04T01:38:23;96328.56;;;9.42;43.42
43450;BME280;29041;42.266;23.110;2023-12-04T01:41:10;96334.06;;;8.95;43.98
43450;BME280;29041;42.266;23.110;2023-12-04T01:43:57;96326.91;;;9.18;44.32
43450;BME280;29041;42.266;23.110;2023-12-04T01:46:45;96332.09;;;9.00;43.85
43450;BME280;29041;42.266;23.110;2023-12-04T01:49:33;96323.88;;;9.61;42.50
43450;BME280;29041;42.266;23.110;2023-12-04T01:52:20;96324.22;;;8.62;44.08
43450;BME280;29041;42.266;23.110;2023-12-04T01:55:09;96328.09;;;8.98;43.62
43450;BME280;29041;42.266;23.110;2023-12-04T01:57:57;96327.41;;;9.06;42.80
43450;BME280;29041;42.266;23.110;2023-12-04T02:00:44;96334.25;;;8.84;43.86
43450;BME280;29041;42.266;23.110;2023-12-04T02:03:32;96335.50;;;8.59;44.15
43450;BME280;29041;42.266;23.110;2023-12-04T02:06:21;96329.69;;;8.99;43.61
43450;BME280;29041;42.266;23.110;2023-12-04T02:09:08;96335.72;;;8.44;44.77
43450;BME280;29041;42.266;23.110;2023-12-04T02:11:58;96339.00;;;8.40;45.67
43450;BME280;29041;42.266;23.110;2023-12-04T02:14:46;96339.09;;;8.96;43.50
43450;BME280;29041;42.266;23.110;2023-12-04T02:17:33;96346.41;;;8.30;45.15
43450;BME280;29041;42.266;23.110;2023-12-04T02:20:30;96339.81;;;9.02;44.13
43450;BME280;29041;42.266;23.110;2023-12-04T02:23:19;96340.00;;;9.33;43.58
43450;BME280;29041;42.266;23.110;2023-12-04T02:26:12;96356.53;;;7.94;46.73
43450;BME280;29041;42.266;23.110;2023-12-04T02:29:06;96350.91;;;8.15;45.86
43450;BME280;29041;42.266;23.110;2023-12-04T02:31:56;96354.50;;;9.18;44.65
43450;BME280;29041;42.266;23.110;2023-12-04T02:34:44;96341.66;;;9.57;43.30
43450;BME280;29041;42.266;23.110;2023-12-04T02:37:32;96360.03;;;8.94;43.97
43450;BME280;29041;42.266;23.110;2023-12-04T02:40:21;96366.38;;;8.70;45.29
43450;BME280;29041;42.266;23.110;2023-12-04T02:43:10;96350.78;;;9.42;43.82
43450;BME280;29041;42.266;23.110;2023-12-04T02:45:57;96352.25;;;8.65;45.60
43450;BME280;29041;42.266;23.110;2023-12-04T02:48:44;96360.06;;;8.28;46.18
43450;BME280;29041;42.266;23.110;2023-12-04T02:51:31;96366.53;;;7.89;47.29
43450;BME280;29041;42.266;23.110;2023-12-04T02:54:18;96358.94;;;7.96;47.56
43450;BME280;29041;42.266;23.110;2023-12-04T02:57:05;96362.09;;;8.17;46.14
43450;BME280;29041;42.266;23.110;2023-12-04T02:59:54;96357.09;;;8.49;44.94
43450;BME280;29041;42.266;23.110;2023-12-04T03:02:41;96369.38;;;7.35;47.92
43450;BME280;29041;42.266;23.110;2023-12-04T03:05:28;96374.47;;;8.65;45.13
43450;BME280;29041;42.266;23.110;2023-12-04T03:08:15;96372.44;;;8.24;45.43
43450;BME280;29041;42.266;23.110;2023-12-04T03:11:02;96377.06;;;7.80;47.36
43450;BME280;29041;42.266;23.110;2023-12-04T03:13:50;96368.84;;;8.67;44.98
43450;BME280;29041;42.266;23.110;2023-12-04T03:16:38;96366.41;;;8.98;44.32
43450;BME280;29041;42.266;23.110;2023-12-04T03:19:25;96369.47;;;8.25;45.33
43450;BME280;29041;42.266;23.110;2023-12-04T03:22:12;96386.13;;;7.84;46.06
43450;BME280;29041;42.266;23.110;2023-12-04T03:24:59;96384.22;;;8.89;43.63
43450;BME280;29041;42.266;23.110;2023-12-04T03:27:46;96381.00;;;8.59;44.00
43450;BME280;29041;42.266;23.110;2023-12-04T03:30:33;96388.19;;;8.06;45.80
43450;BME280;29041;42.266;23.110;2023-12-04T03:33:22;96375.53;;;8.64;45.09
43450;BME280;29041;42.266;23.110;2023-12-04T03:36:10;96363.16;;;7.15;46.55
43450;BME280;29041;42.266;23.110;2023-12-04T03:38:57;96376.31;;;6.24;48.20
43450;BME280;29041;42.266;23.110;2023-12-04T03:41:44;96370.84;;;8.23;43.73
43450;BME280;29041;42.266;23.110;2023-12-04T03:44:31;96381.00;;;9.20;42.19
43450;BME280;29041;42.266;23.110;2023-12-04T03:47:18;96381.38;;;8.33;42.51
43450;BME280;29041;42.266;23.110;2023-12-04T03:50:08;96377.25;;;8.41;42.46
43450;BME280;29041;42.266;23.110;2023-12-04T03:52:55;96384.09;;;7.33;42.49
43450;BME280;29041;42.266;23.110;2023-12-04T03:55:42;96392.44;;;7.69;42.53
43450;BME280;29041;42.266;23.110;2023-12-04T03:58:29;96384.41;;;7.26;43.42
43450;BME280;29041;42.266;23.110;2023-12-04T04:01:16;96399.97;;;6.94;43.39
43450;BME280;29041;42.266;23.110;2023-12-04T04:04:04;96395.28;;;7.78;42.30
43450;BME280;29041;42.266;23.110;2023-12-04T04:06:52;96395.09;;;7.26;42.46
43450;BME280;29041;42.266;23.110;2023-12-04T04:09:39;96390.41;;;7.61;42.69
43450;BME280;29041;42.266;23.110;2023-12-04T04:12:26;96400.19;;;7.90;41.85
43450;BME280;29041;42.266;23.110;2023-12-04T04:15:14;96399.84;;;8.16;41.62
43450;BME280;29041;42.266;23.110;2023-12-04T04:18:01;96388.31;;;7.58;42.74
43450;BME280;29041;42.266;23.110;2023-12-04T04:20:48;96393.81;;;8.76;40.77
43450;BME280;29041;42.266;23.110;2023-12-04T04:23:37;96398.88;;;8.25;41.76
43450;BME280;29041;42.266;23.110;2023-12-04T04:26:24;96406.81;;;8.31;41.53
43450;BME280;29041;42.266;23.110;2023-12-04T04:29:12;96401.72;;;7.96;41.85
43450;BME280;29041;42.266;23.110;2023-12-04T04:31:59;96416.41;;;7.99;42.35
43450;BME280;29041;42.266;23.110;2023-12-04T04:34:47;96410.84;;;7.71;42.39
43450;BME280;29041;42.266;23.110;2023-12-04T04:37:34;96405.28;;;7.67;42.74
43450;BME280;29041;42.266;23.110;2023-12-04T04:40:22;96408.88;;;7.82;43.12
43450;BME280;29041;42.266;23.110;2023-12-04T04:43:10;96416.09;;;8.57;42.05
43450;BME280;29041;42.266;23.110;2023-12-04T04:45:57;96427.88;;;8.37;41.94
43450;BME280;29041;42.266;23.110;2023-12-04T04:48:44;96433.00;;;8.15;42.30
43450;BME280;29041;42.266;23.110;2023-12-04T04:51:31;96438.66;;;7.51;44.52
43450;BME280;29041;42.266;23.110;2023-12-04T04:54:18;96437.91;;;7.88;43.59
43450;BME280;29041;42.266;23.110;2023-12-04T04:57:07;96442.19;;;8.08;43.59
43450;BME280;29041;42.266;23.110;2023-12-04T04:59:54;96451.19;;;7.93;43.99
43450;BME280;29041;42.266;23.110;2023-12-04T05:02:41;96455.78;;;8.69;43.17
43450;BME280;29041;42.266;23.110;2023-12-04T05:05:28;96459.00;;;7.90;44.84
43450;BME280;29041;42.266;23.110;2023-12-04T05:08:15;96464.31;;;8.33;44.09
43450;BME280;29041;42.266;23.110;2023-12-04T05:11:03;96464.31;;;7.71;44.01
43450;BME280;29041;42.266;23.110;2023-12-04T05:13:52;96468.81;;;8.57;43.15
43450;BME280;29041;42.266;23.110;2023-12-04T05:16:39;96470.53;;;8.09;43.81
43450;BME280;29041;42.266;23.110;2023-12-04T05:19:26;96469.97;;;8.51;43.63
43450;BME280;29041;42.266;23.110;2023-12-04T05:22:13;96466.03;;;7.61;44.42
43450;BME280;29041;42.266;23.110;2023-12-04T05:25:00;96468.56;;;7.96;44.08
43450;BME280;29041;42.266;23.110;2023-12-04T05:27:47;96470.09;;;7.05;45.64
43450;BME280;29041;42.266;23.110;2023-12-04T05:30:36;96468.56;;;7.72;45.15
43450;BME280;29041;42.266;23.110;2023-12-04T05:33:23;96471.72;;;7.01;46.15
43450;BME280;29041;42.266;23.110;2023-12-04T05:36:11;96457.97;;;7.42;45.33
43450;BME280;29041;42.266;23.110;2023-12-04T05:38:58;96465.69;;;8.12;45.27
43450;BME280;29041;42.266;23.110;2023-12-04T05:41:45;96472.41;;;8.09;45.79
43450;BME280;29041;42.266;23.110;2023-12-04T05:44:33;96467.69;;;7.82;45.87
43450;BME280;29041;42.266;23.110;2023-12-04T05:47:22;96465.84;;;7.53;46.46
43450;BME280;29041;42.266;23.110;2023-12-04T05:50:09;96479.34;;;7.42;46.57
43450;BME280;29041;42.266;23.110;2023-12-04T05:52:56;96460.78;;;7.03;46.42
43450;BME280;29041;42.266;23.110;2023-12-04T05:55:44;96469.53;;;6.39;48.74
43450;BME280;29041;42.266;23.110;2023-12-04T05:58:31;96474.69;;;7.53;46.64
43450;BME280;29041;42.266;23.110;2023-12-04T06:01:19;96467.59;;;7.14;47.43
43450;BME280;29041;42.266;23.110;2023-12-04T06:04:07;96467.38;;;7.35;46.80
43450;BME280;29041;42.266;23.110;2023-12-04T06:06:54;96472.56;;;7.26;47.10
43450;BME280;29041;42.266;23.110;2023-12-04T06:09:41;96479.91;;;7.63;45.44
43450;BME280;29041;42.266;23.110;2023-12-04T06:12:28;96493.16;;;6.16;48.62
43450;BME280;29041;42.266;23.110;2023-12-04T06:15:16;96494.28;;;7.14;45.22
43450;BME280;29041;42.266;23.110;2023-12-04T06:18:03;96507.28;;;6.57;47.35
43450;BME280;29041;42.266;23.110;2023-12-04T06:20:51;96482.00;;;6.04;48.03
43450;BME280;29041;42.266;23.110;2023-12-04T06:23:39;96494.38;;;7.04;45.64
43450;BME280;29041;42.266;23.110;2023-12-04T06:26:27;96471.03;;;7.44;44.12
43450;BME280;29041;42.266;23.110;2023-12-04T06:29:14;96492.56;;;7.28;44.49
43450;BME280;29041;42.266;23.110;2023-12-04T06:32:02;96493.97;;;7.21;44.63
43450;BME280;29041;42.266;23.110;2023-12-04T06:34:50;96489.44;;;6.92;45.64
43450;BME280;29041;42.266;23.110;2023-12-04T06:37:40;96489.97;;;6.89;44.33
43450;BME280;29041;42.266;23.110;2023-12-04T06:40:27;96493.09;;;7.55;44.47
43450;BME280;29041;42.266;23.110;2023-12-04T06:43:15;96490.88;;;6.79;45.41
43450;BME280;29041;42.266;23.110;2023-12-04T06:46:05;96492.56;;;6.25;45.85
43450;BME280;29041;42.266;23.110;2023-12-04T06:48:54;96495.00;;;6.61;46.29
43450;BME280;29041;42.266;23.110;2023-12-04T06:51:43;96500.78;;;9.33;39.39
43450;BME280;29041;42.266;23.110;2023-12-04T06:54:32;96487.75;;;11.29;35.57
43450;BME280;29041;42.266;23.110;2023-12-04T06:57:19;96492.75;;;11.94;33.83
43450;BME280;29041;42.266;23.110;2023-12-04T07:00:07;96497.41;;;12.02;34.40
43450;BME280;29041;42.266;23.110;2023-12-04T07:02:58;96497.59;;;13.20;31.96
43450;BME280;29041;42.266;23.110;2023-12-04T07:05:45;96500.75;;;13.22;31.98
43450;BME280;29041;42.266;23.110;2023-12-04T07:08:32;96492.69;;;14.80;29.40
43450;BME280;29041;42.266;23.110;2023-12-04T07:11:20;96460.44;;;11.85;31.73
43450;BME280;29041;42.266;23.110;2023-12-04T07:14:07;96509.38;;;14.01;28.92
43450;BME280;29041;42.266;23.110;2023-12-04T07:16:54;96507.91;;;13.17;29.45
43450;BME280;29041;42.266;23.110;2023-12-04T07:19:47;96503.56;;;14.93;28.51
43450;BME280;29041;42.266;23.110;2023-12-04T07:22:34;96505.69;;;15.20;29.21
43450;BME280;29041;42.266;23.110;2023-12-04T07:25:21;96511.91;;;11.92;32.43
43450;BME280;29041;42.266;23.110;2023-12-04T07:28:10;96499.19;;;17.27;26.35
43450;BME280;29041;42.266;23.110;2023-12-04T07:30:57;96511.28;;;14.82;28.39
43450;BME280;29041;42.266;23.110;2023-12-04T07:33:44;96498.50;;;13.50;29.08
43450;BME280;29041;42.266;23.110;2023-12-04T07:36:31;96488.13;;;15.39;28.12
43450;BME280;29041;42.266;23.110;2023-12-04T07:39:18;96493.78;;;17.27;25.59
43450;BME280;29041;42.266;23.110;2023-12-04T07:42:06;96506.16;;;16.30;25.81
43450;BME280;29041;42.266;23.110;2023-12-04T07:44:54;96504.19;;;15.57;26.63
43450;BME280;29041;42.266;23.110;2023-12-04T07:47:41;96501.34;;;14.73;27.40
43450;BME280;29041;42.266;23.110;2023-12-04T07:50:28;96507.72;;;16.19;26.40
43450;BME280;29041;42.266;23.110;2023-12-04T07:53:16;96505.31;;;17.24;25.46
43450;BME280;29041;42.266;23.110;2023-12-04T07:56:03;96515.72;;;15.78;27.14
43450;BME280;29041;42.266;23.110;2023-12-04T07:58:51;96506.81;;;15.78;27.56
43450;BME280;29041;42.266;23.110;2023-12-04T08:01:39;96500.22;;;18.70;23.72
43450;BME280;29041;42.266;23.110;2023-12-04T08:04:26;96497.13;;;16.26;26.46
43450;BME280;29041;42.266;23.110;2023-12-04T08:07:14;96510.13;;;13.15;30.76
43450;BME280;29041;42.266;23.110;2023-12-04T08:10:01;96499.56;;;14.48;30.37
43450;BME280;29041;42.266;23.110;2023-12-04T08:12:48;96503.97;;;12.36;31.57
43450;BME280;29041;42.266;23.110;2023-12-04T08:15:35;96511.38;;;14.64;29.37
43450;BME280;29041;42.266;23.110;2023-12-04T08:18:24;96509.56;;;16.15;27.63
43450;BME280;29041;42.266;23.110;2023-12-04T08:21:11;96504.63;;;16.99;27.26
43450;BME280;29041;42.266;23.110;2023-12-04T08:23:58;96514.50;;;13.55;30.08
43450;BME280;29041;42.266;23.110;2023-12-04T08:26:46;96525.47;;;14.49;30.68
43450;BME280;29041;42.266;23.110;2023-12-04T08:29:33;96510.81;;;18.55;25.43
43450;BME280;29041;42.266;23.110;2023-12-04T08:32:20;96517.53;;;16.89;25.84
43450;BME280;29041;42.266;23.110;2023-12-04T08:35:09;96522.50;;;12.81;33.00
43450;BME280;29041;42.266;23.110;2023-12-04T08:37:56;96522.00;;;13.32;31.94
43450;BME280;29041;42.266;23.110;2023-12-04T08:40:44;96520.09;;;13.89;30.25
43450;BME280;29041;42.266;23.110;2023-12-04T08:43:31;96521.72;;;12.54;34.75
43450;BME280;29041;42.266;23.110;2023-12-04T08:46:18;96521.94;;;12.09;35.05
43450;BME280;29041;42.266;23.110;2023-12-04T08:49:06;96533.44;;;12.85;34.20
43450;BME280;29041;42.266;23.110;2023-12-04T08:51:54;96533.59;;;12.53;34.87
43450;BME280;29041;42.266;23.110;2023-12-04T08:54:43;96528.25;;;13.71;34.20
43450;BME280;29041;42.266;23.110;2023-12-04T08:57:30;96523.78;;;13.01;33.70
43450;BME280;29041;42.266;23.110;2023-12-04T09:00:17;96525.19;;;14.71;30.08
43450;BME280;29041;42.266;23.110;2023-12-04T09:03:04;96522.44;;;13.34;32.00
43450;BME280;29041;42.266;23.110;2023-12-04T09:05:51;96519.75;;;13.52;34.39
43450;BME280;29041;42.266;23.110;2023-12-04T09:08:42;96520.22;;;15.28;31.52
43450;BME280;29041;42.266;23.110;2023-12-04T09:11:29;96524.88;;;13.83;31.68
43450;BME280;29041;42.266;23.110;2023-12-04T09:14:16;96524.19;;;13.56;33.43
43450;BME280;29041;42.266;23.110;2023-12-04T09:17:03;96513.16;;;12.79;33.82
43450;BME280;29041;42.266;23.110;2023-12-04T09:19:51;96501.50;;;13.48;32.81
43450;BME280;29041;42.266;23.110;2023-12-04T09:22:38;96495.22;;;13.00;33.83
43450;BME280;29041;42.266;23.110;2023-12-04T09:25:27;96502.94;;;13.37;33.44
43450;BME280;29041;42.266;23.110;2023-12-04T09:28:14;96486.19;;;14.30;31.15
43450;BME280;29041;42.266;23.110;2023-12-04T09:31:02;96485.84;;;14.10;32.28
43450;BME280;29041;42.266;23.110;2023-12-04T09:33:49;96466.81;;;15.25;31.92
43450;BME280;29041;42.266;23.110;2023-12-04T09:36:36;96462.00;;;14.12;32.85
43450;BME280;29041;42.266;23.110;2023-12-04T09:39:23;96472.72;;;15.39;30.34
43450;BME280;29041;42.266;23.110;2023-12-04T09:42:13;96475.72;;;14.92;29.99
43450;BME280;29041;42.266;23.110;2023-12-04T09:45:01;96472.00;;;15.18;29.59
43450;BME280;29041;42.266;23.110;2023-12-04T09:47:48;96478.34;;;14.58;30.46
43450;BME280;29041;42.266;23.110;2023-12-04T09:50:36;96481.63;;;15.06;29.94
43450;BME280;29041;42.266;23.110;2023-12-04T09:53:26;96475.19;;;15.32;29.30
43450;BME280;29041;42.266;23.110;2023-12-04T09:56:15;96478.78;;;14.48;29.87
43450;BME280;29041;42.266;23.110;2023-12-04T09:59:06;96478.47;;;13.60;31.16
43450;BME280;29041;42.266;23.110;2023-12-04T10:01:54;96473.63;;;15.81;29.60
43450;BME280;29041;42.266;23.110;2023-12-04T10:04:42;96472.25;;;15.50;29.32
43450;BME280;29041;42.266;23.110;2023-12-04T10:07:29;96466.84;;;15.37;29.22
43450;BME280;29041;42.266;23.110;2023-12-04T10:10:17;96461.16;;;14.21;30.88
43450;BME280;29041;42.266;23.110;2023-12-04T10:13:05;96461.38;;;12.56;34.05
43450;BME280;29041;42.266;23.110;2023-12-04T10:15:53;96448.41;;;15.06;30.75
43450;BME280;29041;42.266;23.110;2023-12-04T10:18:41;96456.97;;;13.72;31.13
43450;BME280;29041;42.266;23.110;2023-12-04T10:21:32;96425.81;;;16.50;29.61
43450;BME280;29041;42.266;23.110;2023-12-04T10:24:30;96439.03;;;14.27;30.88
43450;BME280;29041;42.266;23.110;2023-12-04T10:27:18;96438.72;;;14.71;30.48
43450;BME280;29041;42.266;23.110;2023-12-04T10:30:07;96441.44;;;14.84;32.00
43450;BME280;29041;42.266;23.110;2023-12-04T10:32:56;96442.69;;;14.23;31.64
43450;BME280;29041;42.266;23.110;2023-12-04T10:35:46;96409.47;;;15.94;29.38
43450;BME280;29041;42.266;23.110;2023-12-04T10:38:33;96420.84;;;16.81;29.08
43450;BME280;29041;42.266;23.110;2023-12-04T10:41:20;96425.69;;;16.59;27.58
43450;BME280;29041;42.266;23.110;2023-12-04T10:44:07;96432.66;;;15.45;29.12
43450;BME280;29041;42.266;23.110;2023-12-04T10:46:55;96419.84;;;15.92;29.56
43450;BME280;29041;42.266;23.110;2023-12-04T10:49:46;96406.03;;;12.84;32.55
43450;BME280;29041;42.266;23.110;2023-12-04T10:52:36;96414.44;;;16.45;28.85
43450;BME280;29041;42.266;23.110;2023-12-04T10:55:26;96412.84;;;15.53;29.13
43450;BME280;29041;42.266;23.110;2023-12-04T10:58:14;96410.16;;;15.91;28.87
43450;BME280;29041;42.266;23.110;2023-12-04T11:01:02;96405.72;;;16.52;28.07
43450;BME280;29041;42.266;23.110;2023-12-04T11:03:53;96400.69;;;15.84;28.87
43450;BME280;29041;42.266;23.110;2023-12-04T11:06:47;96407.84;;;15.18;29.33
43450;BME280;29041;42.266;23.110;2023-12-04T11:09:37;96410.34;;;14.78;30.96
43450;BME280;29041;42.266;23.110;2023-12-04T11:12:25;96393.66;;;16.49;29.53
43450;BME280;29041;42.266;23.110;2023-12-04T11:15:20;96392.59;;;16.25;28.59
43450;BME280;29041;42.266;23.110;2023-12-04T11:18:13;96395.59;;;15.95;28.54
43450;BME280;29041;42.266;23.110;2023-12-04T11:21:05;96390.84;;;17.18;27.44
43450;BME280;29041;42.266;23.110;2023-12-04T11:23:55;96377.19;;;17.15;27.72
43450;BME280;29041;42.266;23.110;2023-12-04T11:26:44;96391.91;;;17.46;27.66
43450;BME280;29041;42.266;23.110;2023-12-04T11:29:32;96386.25;;;16.33;28.13
43450;BME280;29041;42.266;23.110;2023-12-04T11:32:24;96374.28;;;17.23;27.89
43450;BME280;29041;42.266;23.110;2023-12-04T11:35:13;96380.63;;;16.26;27.83
43450;BME280;29041;42.266;23.110;2023-12-04T11:38:01;96373.31;;;18.15;27.72
43450;BME280;29041;42.266;23.110;2023-12-04T11:40:52;96367.16;;;18.58;25.94
43450;BME280;29041;42.266;23.110;2023-12-04T11:43:42;96375.16;;;16.10;28.13
43450;BME280;29041;42.266;23.110;2023-12-04T11:46:29;96367.84;;;15.49;29.60
43450;BME280;29041;42.266;23.110;2023-12-04T11:49:26;96367.91;;;17.83;27.89
43450;BME280;29041;42.266;23.110;2023-12-04T11:52:14;96367.38;;;16.65;27.87
43450;BME280;29041;42.266;23.110;2023-12-04T11:55:03;96355.03;;;20.25;24.66
43450;BME280;29041;42.266;23.110;2023-12-04T11:57:54;96351.66;;;18.62;27.28
43450;BME280;29041;42.266;23.110;2023-12-04T12:00:43;96343.44;;;16.11;28.54
43450;BME280;29041;42.266;23.110;2023-12-04T12:03:30;96335.19;;;19.17;26.05
43450;BME280;29041;42.266;23.110;2023-12-04T12:06:20;96339.22;;;19.03;26.14
43450;BME280;29041;42.266;23.110;2023-12-04T12:09:08;96325.72;;;18.87;26.08
43450;BME280;29041;42.266;23.110;2023-12-04T12:11:55;96330.81;;;16.59;28.72
43450;BME280;29041;42.266;23.110;2023-12-04T12:14:44;96339.13;;;17.11;28.51
43450;BME280;29041;42.266;23.110;2023-12-04T12:17:31;96347.53;;;14.93;30.92
43450;BME280;29041;42.266;23.110;2023-12-04T12:20:18;96335.38;;;15.61;30.46
43450;BME280;29041;42.266;23.110;2023-12-04T12:23:06;96329.63;;;17.37;29.09
43450;BME280;29041;42.266;23.110;2023-12-04T12:25:53;96324.13;;;16.12;29.25
43450;BME280;29041;42.266;23.110;2023-12-04T12:28:40;96324.75;;;17.26;27.83
43450;BME280;29041;42.266;23.110;2023-12-04T12:31:29;96314.97;;;19.41;25.47
43450;BME280;29041;42.266;23.110;2023-12-04T12:34:17;96297.75;;;19.91;25.11
43450;BME280;29041;42.266;23.110;2023-12-04T12:37:04;96309.72;;;16.24;29.67
43450;BME280;29041;42.266;23.110;2023-12-04T12:39:52;96303.91;;;16.22;30.17
43450;BME280;29041;42.266;23.110;2023-12-04T12:42:39;96306.81;;;15.76;30.82
43450;BME280;29041;42.266;23.110;2023-12-04T12:45:28;96293.66;;;17.40;28.65
43450;BME280;29041;42.266;23.110;2023-12-04T12:48:17;96281.91;;;19.43;26.65
43450;BME280;29041;42.266;23.110;2023-12-04T12:51:06;96277.69;;;17.54;27.90
43450;BME280;29041;42.266;23.110;2023-12-04T12:53:57;96280.38;;;15.98;29.56
43450;BME280;29041;42.266;23.110;2023-12-04T12:56:44;96285.03;;;17.54;28.20
43450;BME280;29041;42.266;23.110;2023-12-04T12:59:32;96287.66;;;16.99;29.04
43450;BME280;29041;42.266;23.110;2023-12-04T13:02:20;96273.28;;;18.44;27.70
43450;BME280;29041;42.266;23.110;2023-12-04T13:05:08;96291.97;;;16.55;29.31
43450;BME280;29041;42.266;23.110;2023-12-04T13:07:57;96279.84;;;16.21;30.80
43450;BME280;29041;42.266;23.110;2023-12-04T13:10:44;96287.09;;;16.77;29.71
43450;BME280;29041;42.266;23.110;2023-12-04T13:13:31;96263.72;;;18.97;27.83
43450;BME280;29041;42.266;23.110;2023-12-04T13:16:18;96273.38;;;16.25;29.95
43450;BME280;29041;42.266;23.110;2023-12-04T13:19:06;96282.47;;;17.25;29.28
43450;BME280;29041;42.266;23.110;2023-12-04T13:21:55;96288.72;;;16.49;29.23
43450;BME280;29041;42.266;23.110;2023-12-04T13:24:42;96285.41;;;15.83;30.26
43450;BME280;29041;42.266;23.110;2023-12-04T13:27:29;96283.84;;;16.11;29.48
43450;BME280;29041;42.266;23.110;2023-12-04T13:30:19;96275.97;;;18.01;27.99
43450;BME280;29041;42.266;23.110;2023-12-04T13:33:06;96277.69;;;16.26;28.80
43450;BME280;29041;42.266;23.110;2023-12-04T13:35:54;96281.69;;;15.76;29.93
43450;BME280;29041;42.266;23.110;2023-12-04T13:38:42;96282.44;;;16.17;29.51
43450;BME280;29041;42.266;23.110;2023-12-04T13:41:29;96291.00;;;14.88;30.97
43450;BME280;29041;42.266;23.110;2023-12-04T13:44:34;96281.94;;;14.25;32.10
43450;BME280;29041;42.266;23.110;2023-12-04T13:47:21;96282.88;;;14.88;30.98
43450;BME280;29041;42.266;23.110;2023-12-04T13:50:09;96281.94;;;15.58;30.22
43450;BME280;29041;42.266;23.110;2023-12-04T13:52:56;96279.22;;;15.70;30.39
43450;BME280;29041;42.266;23.110;2023-12-04T13:55:45;96278.56;;;15.49;30.80
43450;BME280;29041;42.266;23.110;2023-12-04T13:58:54;96274.44;;;15.80;31.00
43450;BME280;29041;42.266;23.110;2023-12-04T14:01:42;96268.88;;;15.48;31.54
43450;BME280;29041;42.266;23.110;2023-12-04T14:04:30;96281.34;;;14.53;32.50
43450;BME280;29041;42.266;23.110;2023-12-04T14:07:17;96278.84;;;15.19;31.89
43450;BME280;29041;42.266;23.110;2023-12-04T14:10:05;96274.47;;;15.67;31.60
43450;BME280;29041;42.266;23.110;2023-12-04T14:12:55;96280.16;;;15.13;32.42
43450;BME280;29041;42.266;23.110;2023-12-04T14:15:43;96281.63;;;15.47;31.10
43450;BME280;29041;42.266;23.110;2023-12-04T14:18:30;96290.69;;;15.80;30.85
43450;BME280;29041;42.266;23.110;2023-12-04T14:21:17;96286.59;;;15.20;31.34
43450;BME280;29041;42.266;23.110;2023-12-04T14:24:05;96281.97;;;15.21;31.30
43450;BME280;29041;42.266;23.110;2023-12-04T14:26:52;96288.25;;;14.75;31.42
43450;BME280;29041;42.266;23.110;2023-12-04T14:29:41;96288.94;;;15.47;31.59
43450;BME280;29041;42.266;23.110;2023-12-04T14:32:30;96288.19;;;14.84;30.91
43450;BME280;29041;42.266;23.110;2023-12-04T14:35:18;96288.53;;;15.32;31.83
43450;BME280;29041;42.266;23.110;2023-12-04T14:38:05;96285.13;;;15.35;31.81
43450;BME280;29041;42.266;23.110;2023-12-04T14:40:52;96297.75;;;14.94;31.98
43450;BME280;29041;42.266;23.110;2023-12-04T14:43:39;96296.25;;;13.62;34.07